createdAt,value
2022-07-29T00:01:05.627Z,3.42
2022-07-29T00:03:33.136Z,3.28
2022-07-29T00:06:00.898Z,3.50
2022-07-29T00:08:28.156Z,3.30
2022-07-29T00:10:55.535Z,3.40
2022-07-29T00:13:32.249Z,3.62
2022-07-29T00:16:04.558Z,3.03
2022-07-29T00:18:32.969Z,3.87
2022-07-29T00:21:00.625Z,3.97
2022-07-29T00:23:27.809Z,3.60
2022-07-29T00:25:54.968Z,3.55
2022-07-29T00:28:22.359Z,3.85
2022-07-29T00:30:49.432Z,3.80
2022-07-29T00:33:16.536Z,3.45
2022-07-29T00:35:47.319Z,3.80
2022-07-29T00:38:15.878Z,4.10
2022-07-29T00:40:44.342Z,3.80
2022-07-29T00:43:13.464Z,3.50
2022-07-29T00:45:41.211Z,3.85
2022-07-29T00:48:09.719Z,3.40
2022-07-29T00:50:37.544Z,3.90
2022-07-29T00:53:06.450Z,4.25
2022-07-29T00:55:34.096Z,4.40
2022-07-29T00:58:01.432Z,4.20
2022-07-29T01:00:31.576Z,3.70
2022-07-29T01:02:59.664Z,3.37
2022-07-29T01:05:49.814Z,3.85
2022-07-29T01:08:16.560Z,3.67
2022-07-29T01:10:44.128Z,4.10
2022-07-29T01:13:11.636Z,3.70
2022-07-29T01:15:49.275Z,3.30
2022-07-29T01:18:37.082Z,3.90
2022-07-29T01:21:26.832Z,4.05
2022-07-29T01:24:12.936Z,3.58
2022-07-29T01:26:43.604Z,3.62
2022-07-29T01:29:36.255Z,3.83
2022-07-29T01:32:28.864Z,3.42
2022-07-29T01:35:20.309Z,3.65
2022-07-29T01:38:02.940Z,3.75
2022-07-29T01:40:44.488Z,4.18
2022-07-29T01:43:15.468Z,3.85
2022-07-29T01:45:54.332Z,3.40
2022-07-29T01:48:32.178Z,3.42
2022-07-29T01:51:14.490Z,3.80
2022-07-29T01:53:45.746Z,3.83
2022-07-29T01:56:14.613Z,3.70
2022-07-29T01:58:42.862Z,4.03
2022-07-29T02:01:10.958Z,3.65
2022-07-29T02:03:39.151Z,3.72
2022-07-29T02:06:08.346Z,3.87
2022-07-29T02:08:36.998Z,3.85
2022-07-29T02:11:05.558Z,4.28
2022-07-29T02:13:33.286Z,3.80
2022-07-29T02:16:01.656Z,3.97
2022-07-29T02:18:29.674Z,4.35
2022-07-29T02:20:57.953Z,5.12
2022-07-29T02:23:25.518Z,4.90
2022-07-29T02:25:56.532Z,3.62
2022-07-29T02:28:25.829Z,4.50
2022-07-29T02:30:54.775Z,4.10
2022-07-29T02:33:22.566Z,4.50
2022-07-29T02:35:49.893Z,4.55
2022-07-29T02:38:36.700Z,4.35
2022-07-29T02:41:09.270Z,4.30
2022-07-29T02:43:36.978Z,4.30
2022-07-29T02:46:06.045Z,4.32
2022-07-29T02:49:09.584Z,4.93
2022-07-29T02:51:56.394Z,4.78
2022-07-29T02:54:28.833Z,4.78
2022-07-29T02:56:58.808Z,4.40
2022-07-29T02:59:29.025Z,4.07
2022-07-29T03:01:57.039Z,4.70
2022-07-29T03:04:26.428Z,4.60
2022-07-29T03:06:54.236Z,4.90
2022-07-29T03:09:22.133Z,4.90
2022-07-29T03:11:51.050Z,4.90
2022-07-29T03:14:20.545Z,4.40
2022-07-29T03:16:48.426Z,4.53
2022-07-29T03:19:15.844Z,4.87
2022-07-29T03:21:43.334Z,4.30
2022-07-29T03:24:11.070Z,4.57
2022-07-29T03:26:38.387Z,4.85
2022-07-29T03:29:05.908Z,4.28
2022-07-29T03:31:34.283Z,5.15
2022-07-29T03:34:01.441Z,5.25
2022-07-29T03:36:28.809Z,4.35
2022-07-29T03:38:56.066Z,4.72
2022-07-29T03:41:23.766Z,4.78
2022-07-29T03:43:52.990Z,4.43
2022-07-29T03:46:22.406Z,4.60
2022-07-29T03:48:52.093Z,4.78
2022-07-29T03:51:19.907Z,4.40
2022-07-29T03:54:07.892Z,4.87
2022-07-29T03:56:40.957Z,4.55
2022-07-29T03:59:08.434Z,3.60
2022-07-29T04:01:36.119Z,4.37
2022-07-29T04:04:04.882Z,4.45
2022-07-29T04:06:41.954Z,4.18
2022-07-29T04:09:10.106Z,4.53
2022-07-29T04:12:01.795Z,4.32
2022-07-29T04:14:26.620Z,4.90
2022-07-29T04:16:54.120Z,4.25
2022-07-29T04:19:21.264Z,4.20
2022-07-29T04:21:48.667Z,4.80
2022-07-29T04:24:16.147Z,4.22
2022-07-29T04:26:43.713Z,4.20
2022-07-29T04:29:12.936Z,4.22
2022-07-29T04:31:40.115Z,4.15
2022-07-29T04:34:07.724Z,4.40
2022-07-29T04:36:38.080Z,4.28
2022-07-29T04:39:05.437Z,4.32
2022-07-29T04:41:33.129Z,4.43
2022-07-29T04:44:06.930Z,4.22
2022-07-29T04:46:35.257Z,4.40
2022-07-29T04:49:04.029Z,4.40
2022-07-29T04:51:31.392Z,4.40
2022-07-29T04:53:58.535Z,4.07
2022-07-29T04:56:26.062Z,4.40
2022-07-29T04:58:53.300Z,4.43
2022-07-29T05:01:20.803Z,4.35
2022-07-29T05:03:48.329Z,4.05
2022-07-29T05:06:15.570Z,4.40
2022-07-29T05:08:42.700Z,4.12
2022-07-29T05:11:11.485Z,4.50
2022-07-29T05:13:46.025Z,4.60
2022-07-29T05:16:15.120Z,4.40
2022-07-29T05:18:43.289Z,3.80
2022-07-29T05:21:10.554Z,5.00
2022-07-29T05:23:37.937Z,5.35
2022-07-29T05:26:05.083Z,4.68
2022-07-29T05:28:38.892Z,4.60
2022-07-29T05:31:06.391Z,4.72
2022-07-29T05:33:35.270Z,4.45
2022-07-29T05:36:08.338Z,5.12
2022-07-29T05:38:36.865Z,4.72
2022-07-29T05:41:05.303Z,5.10
2022-07-29T05:43:33.025Z,4.57
2022-07-29T05:46:00.631Z,4.80
2022-07-29T05:48:27.903Z,5.60
2022-07-29T05:50:55.467Z,5.03
2022-07-29T05:53:23.358Z,4.22
2022-07-29T05:55:50.661Z,4.80
2022-07-29T05:58:17.747Z,4.70
2022-07-29T06:00:45.482Z,4.28
2022-07-29T06:03:13.359Z,4.90
2022-07-29T06:05:40.937Z,4.93
2022-07-29T06:08:08.573Z,4.70
2022-07-29T06:10:36.795Z,4.90
2022-07-29T06:13:04.242Z,4.68
2022-07-29T06:15:31.518Z,4.68
2022-07-29T06:18:00.427Z,4.47
2022-07-29T06:20:32.711Z,4.55
2022-07-29T06:23:00.954Z,4.62
2022-07-29T06:25:31.789Z,4.82
2022-07-29T06:27:59.027Z,4.72
2022-07-29T06:30:29.852Z,4.68
2022-07-29T06:32:57.050Z,4.95
2022-07-29T06:35:38.973Z,4.30
2022-07-29T06:38:25.153Z,4.30
2022-07-29T06:41:04.677Z,4.53
2022-07-29T06:46:20.318Z,4.68
2022-07-29T06:48:51.275Z,4.78
2022-07-29T06:51:22.760Z,4.32
2022-07-29T06:53:58.174Z,4.40
2022-07-29T06:56:29.329Z,5.00
2022-07-29T06:58:56.792Z,4.50
2022-07-29T07:01:24.030Z,5.53
2022-07-29T07:03:51.331Z,4.53
2022-07-29T07:06:18.832Z,6.05
2022-07-29T07:08:45.963Z,5.05
2022-07-29T07:11:13.159Z,4.80
2022-07-29T07:13:40.613Z,4.50
2022-07-29T07:16:07.736Z,4.62
2022-07-29T07:18:34.873Z,5.00
2022-07-29T07:21:02.324Z,4.80
2022-07-29T07:23:29.383Z,4.85
2022-07-29T07:25:56.462Z,4.57
2022-07-29T07:28:24.635Z,4.43
2022-07-29T07:30:53.090Z,4.53
2022-07-29T07:33:20.322Z,5.05
2022-07-29T07:35:48.073Z,5.28
2022-07-29T07:38:15.160Z,5.30
2022-07-29T07:40:42.733Z,5.20
2022-07-29T07:43:10.149Z,4.55
2022-07-29T07:45:38.460Z,4.78
2022-07-29T07:48:06.134Z,4.87
2022-07-29T07:50:33.630Z,4.97
2022-07-29T07:53:03.152Z,5.07
2022-07-29T07:55:42.458Z,5.12
2022-07-29T07:58:17.822Z,5.90
2022-07-29T08:00:45.075Z,5.57
2022-07-29T08:03:16.828Z,4.25
2022-07-29T08:05:45.019Z,4.75
2022-07-29T08:08:12.441Z,5.60
2022-07-29T08:10:57.122Z,5.03
2022-07-29T08:13:26.662Z,4.78
2022-07-29T08:16:01.234Z,5.40
2022-07-29T08:18:30.587Z,4.85
2022-07-29T08:20:58.499Z,4.85
2022-07-29T08:23:32.820Z,4.93
2022-07-29T08:26:13.948Z,5.30
2022-07-29T08:28:46.853Z,5.32
2022-07-29T08:31:15.058Z,4.93
2022-07-29T08:33:42.901Z,4.65
2022-07-29T08:36:10.663Z,5.07
2022-07-29T08:38:38.120Z,5.05
2022-07-29T08:41:05.753Z,3.65
2022-07-29T08:43:33.167Z,4.43
2022-07-29T08:46:01.625Z,4.90
2022-07-29T08:48:28.773Z,5.47
2022-07-29T08:50:57.427Z,4.87
2022-07-29T08:53:27.793Z,4.53
2022-07-29T08:55:55.743Z,5.22
2022-07-29T08:58:24.711Z,5.50
2022-07-29T09:00:56.439Z,6.65
2022-07-29T09:03:26.742Z,6.97
2022-07-29T09:05:54.596Z,6.40
2022-07-29T09:08:22.208Z,7.75
2022-07-29T09:10:50.243Z,7.85
2022-07-29T09:13:17.899Z,8.75
2022-07-29T09:15:45.779Z,9.38
2022-07-29T09:18:19.478Z,9.35
2022-07-29T09:21:17.306Z,8.95
2022-07-29T09:24:12.780Z,8.73
2022-07-29T09:26:44.594Z,8.88
2022-07-29T09:29:13.806Z,8.98
2022-07-29T09:31:43.769Z,8.80
2022-07-29T09:34:14.644Z,5.78
2022-07-29T09:36:49.958Z,6.10
2022-07-29T09:39:28.708Z,4.55
2022-07-29T09:41:58.365Z,4.40
2022-07-29T09:44:27.091Z,4.30
2022-07-29T09:47:09.447Z,4.25
2022-07-29T09:49:53.418Z,3.90
2022-07-29T09:52:20.735Z,4.50
2022-07-29T09:54:48.534Z,4.18
2022-07-29T09:57:30.803Z,4.12
2022-07-29T10:00:02.425Z,4.10
2022-07-29T10:02:40.830Z,3.60
2022-07-29T10:05:26.876Z,4.53
2022-07-29T10:08:03.741Z,3.97
2022-07-29T10:10:34.830Z,4.20
2022-07-29T10:13:11.029Z,4.05
2022-07-29T10:15:47.415Z,3.40
2022-07-29T10:18:15.663Z,3.28
2022-07-29T10:20:43.152Z,3.40
2022-07-29T10:23:10.689Z,3.42
2022-07-29T10:25:38.019Z,3.30
2022-07-29T10:28:06.678Z,3.58
2022-07-29T10:30:33.860Z,3.78
2022-07-29T10:33:19.617Z,3.42
2022-07-29T10:36:19.513Z,3.95
2022-07-29T10:39:11.191Z,3.37
2022-07-29T10:42:13.167Z,3.40
2022-07-29T10:44:44.679Z,3.08
2022-07-29T10:47:22.236Z,3.12
2022-07-29T10:50:01.296Z,4.15
2022-07-29T10:52:50.916Z,3.42
2022-07-29T10:55:43.219Z,2.85
2022-07-29T10:58:19.541Z,3.35
2022-07-29T11:00:49.377Z,2.95
2022-07-29T11:03:50.719Z,3.83
2022-07-29T11:06:26.319Z,3.92
2022-07-29T11:09:18.366Z,3.45
2022-07-29T11:11:51.517Z,3.80
2022-07-29T11:14:53.444Z,3.75
2022-07-29T11:17:20.649Z,3.35
2022-07-29T11:19:51.970Z,3.35
2022-07-29T11:22:36.054Z,3.25
2022-07-29T11:25:17.390Z,3.50
2022-07-29T11:27:48.051Z,3.83
2022-07-29T11:30:15.566Z,3.25
2022-07-29T11:32:45.054Z,3.30
2022-07-29T11:35:38.500Z,2.92
2022-07-29T11:38:23.723Z,3.05
2022-07-29T11:41:27.324Z,3.58
2022-07-29T11:43:56.430Z,3.50
2022-07-29T11:46:43.971Z,3.35
2022-07-29T11:49:11.652Z,3.25
2022-07-29T11:51:48.099Z,3.15
2022-07-29T11:54:18.248Z,3.53
2022-07-29T11:56:55.040Z,3.28
2022-07-29T11:59:22.296Z,2.83
2022-07-29T12:02:25.522Z,3.03
2022-07-29T12:04:55.384Z,3.22
2022-07-29T12:07:35.040Z,2.83
2022-07-29T12:10:04.623Z,3.25
2022-07-29T12:12:34.736Z,3.20
2022-07-29T12:15:14.251Z,3.25
2022-07-29T12:17:43.066Z,2.75
2022-07-29T12:20:10.336Z,2.65
2022-07-29T12:22:44.465Z,3.08
2022-07-29T12:25:32.974Z,3.00
2022-07-29T12:28:02.679Z,2.83
2022-07-29T12:30:41.805Z,2.90
2022-07-29T12:33:16.369Z,2.67
2022-07-29T12:35:58.056Z,2.67
2022-07-29T12:38:30.971Z,2.85
2022-07-29T12:40:58.657Z,2.87
2022-07-29T12:43:26.567Z,2.72
2022-07-29T12:45:55.584Z,2.90
2022-07-29T12:48:41.050Z,3.05
2022-07-29T12:51:09.840Z,2.58
2022-07-29T12:53:37.670Z,2.37
2022-07-29T12:56:20.579Z,3.10
2022-07-29T12:58:51.313Z,2.85
2022-07-29T13:01:20.984Z,2.87
2022-07-29T13:04:01.519Z,3.08
2022-07-29T13:06:49.609Z,2.80
2022-07-29T13:09:20.727Z,2.60
2022-07-29T13:11:50.373Z,2.95
2022-07-29T13:14:33.595Z,2.45
2022-07-29T13:17:08.781Z,2.80
2022-07-29T13:19:37.422Z,2.90
2022-07-29T13:22:05.361Z,3.37
2022-07-29T13:24:32.461Z,3.00
2022-07-29T13:27:00.409Z,3.10
2022-07-29T13:29:31.464Z,2.87
2022-07-29T13:31:59.426Z,2.83
2022-07-29T13:34:26.898Z,2.97
2022-07-29T13:36:54.476Z,2.80
2022-07-29T13:39:21.593Z,2.90
2022-07-29T13:41:48.667Z,2.87
2022-07-29T13:44:16.645Z,3.40
2022-07-29T13:46:43.707Z,2.78
2022-07-29T13:49:12.336Z,3.00
2022-07-29T13:51:39.949Z,2.83
2022-07-29T13:54:07.014Z,3.17
2022-07-29T13:56:35.071Z,3.00
2022-07-29T13:59:02.773Z,3.17
2022-07-29T14:01:31.389Z,3.20
2022-07-29T14:03:58.898Z,3.47
2022-07-29T14:06:26.019Z,2.97
2022-07-29T14:08:53.103Z,3.40
2022-07-29T14:11:20.819Z,2.95
2022-07-29T14:13:47.941Z,3.42
2022-07-29T14:16:16.069Z,2.75
2022-07-29T14:18:43.616Z,3.12
2022-07-29T14:21:10.738Z,2.95
2022-07-29T14:23:38.314Z,2.92
2022-07-29T14:26:15.815Z,2.92
2022-07-29T14:28:44.752Z,2.75
2022-07-29T14:31:12.178Z,3.33
2022-07-29T14:33:39.470Z,2.83
2022-07-29T14:36:06.581Z,3.10
2022-07-29T14:38:33.961Z,2.60
2022-07-29T14:41:01.753Z,2.72
2022-07-29T14:43:30.017Z,2.80
2022-07-29T14:46:02.886Z,3.05
2022-07-29T14:48:31.219Z,3.00
2022-07-29T14:51:04.578Z,3.25
2022-07-29T14:53:32.838Z,2.90
2022-07-29T14:56:10.326Z,2.80
2022-07-29T14:58:49.170Z,3.17
2022-07-29T15:01:19.619Z,2.90
2022-07-29T15:03:46.835Z,2.90
2022-07-29T15:06:13.988Z,3.50
2022-07-29T15:08:41.528Z,3.40
2022-07-29T15:11:08.844Z,3.22
2022-07-29T15:13:36.022Z,3.83
2022-07-29T15:16:03.669Z,3.30
2022-07-29T15:18:31.067Z,2.92
2022-07-29T15:20:59.206Z,3.10
2022-07-29T15:23:26.562Z,3.28
2022-07-29T15:25:53.653Z,3.00
2022-07-29T15:28:20.739Z,2.78
2022-07-29T15:30:48.263Z,2.80
2022-07-29T15:33:15.328Z,3.00
2022-07-29T15:35:42.405Z,3.22
2022-07-29T15:38:09.802Z,2.87
2022-07-29T15:40:39.071Z,2.90
2022-07-29T15:43:06.881Z,3.25
2022-07-29T15:45:40.370Z,3.20
2022-07-29T15:48:09.189Z,4.00
2022-07-29T15:50:36.591Z,3.03
2022-07-29T15:53:03.960Z,3.30
2022-07-29T15:55:31.074Z,3.28
2022-07-29T15:58:00.665Z,3.25
2022-07-29T16:00:28.120Z,3.47
2022-07-29T16:02:56.888Z,3.92
2022-07-29T16:05:24.064Z,3.75
2022-07-29T16:07:51.151Z,3.65
2022-07-29T16:10:18.557Z,3.15
2022-07-29T16:12:45.658Z,3.67
2022-07-29T16:15:12.834Z,2.90
2022-07-29T16:17:40.261Z,3.40
2022-07-29T16:20:08.135Z,3.10
2022-07-29T16:22:35.249Z,3.45
2022-07-29T16:25:03.011Z,3.55
2022-07-29T16:27:31.328Z,3.28
2022-07-29T16:30:06.970Z,3.33
2022-07-29T16:32:34.617Z,2.85
2022-07-29T16:35:02.958Z,3.30
2022-07-29T16:37:33.754Z,3.30
2022-07-29T16:40:01.581Z,3.50
2022-07-29T16:42:45.529Z,3.50
2022-07-29T16:45:15.065Z,3.25
2022-07-29T16:47:42.577Z,3.65
2022-07-29T16:50:09.820Z,3.75
2022-07-29T16:52:38.215Z,3.08
2022-07-29T16:55:05.913Z,3.75
2022-07-29T16:57:33.142Z,4.05
2022-07-29T17:00:00.537Z,3.65
2022-07-29T17:02:27.727Z,3.67
2022-07-29T17:04:55.029Z,3.80
2022-07-29T17:07:22.467Z,3.55
2022-07-29T17:09:53.846Z,3.58
2022-07-29T17:12:22.756Z,3.83
2022-07-29T17:14:49.839Z,3.62
2022-07-29T17:17:20.923Z,3.80
2022-07-29T17:20:05.557Z,3.37
2022-07-29T17:22:32.733Z,3.87
2022-07-29T17:24:59.804Z,3.75
2022-07-29T17:27:28.391Z,3.80
2022-07-29T17:29:55.552Z,4.05
2022-07-29T17:32:22.677Z,3.67
2022-07-29T17:34:50.297Z,3.97
2022-07-29T17:37:17.438Z,3.53
2022-07-29T17:39:44.613Z,3.33
2022-07-29T17:42:13.938Z,3.67
2022-07-29T17:44:41.511Z,3.87
2022-07-29T17:47:15.554Z,4.07
2022-07-29T17:49:45.071Z,4.00
2022-07-29T17:52:12.179Z,3.70
2022-07-29T17:54:39.253Z,3.90
2022-07-29T17:57:06.680Z,3.80
2022-07-29T17:59:33.754Z,4.10
2022-07-29T18:02:03.817Z,4.28
2022-07-29T18:04:31.591Z,3.72
2022-07-29T18:06:58.894Z,3.95
2022-07-29T18:09:26.172Z,4.22
2022-07-29T18:11:53.529Z,4.00
2022-07-29T18:14:20.681Z,4.18
2022-07-29T18:16:47.783Z,3.85
2022-07-29T18:19:16.171Z,4.00
2022-07-29T18:21:51.039Z,4.70
2022-07-29T18:24:27.531Z,4.80
2022-07-29T18:26:54.815Z,5.03
2022-07-29T18:29:22.373Z,4.47
2022-07-29T18:31:50.133Z,4.80
2022-07-29T18:34:17.342Z,5.05
2022-07-29T18:36:45.851Z,4.72
2022-07-29T18:39:20.619Z,4.50
2022-07-29T18:41:51.272Z,4.82
2022-07-29T18:44:22.101Z,4.50
2022-07-29T18:46:51.860Z,4.53
2022-07-29T18:49:19.573Z,4.82
2022-07-29T18:51:46.902Z,4.40
2022-07-29T18:54:14.481Z,4.20
2022-07-29T18:56:41.608Z,4.70
2022-07-29T18:59:08.754Z,4.68
2022-07-29T19:01:37.839Z,4.40
2022-07-29T19:04:05.308Z,4.78
2022-07-29T19:06:32.403Z,4.93
2022-07-29T19:09:00.173Z,5.65
2022-07-29T19:11:27.377Z,5.68
2022-07-29T19:13:54.479Z,5.25
2022-07-29T19:16:21.896Z,5.32
2022-07-29T19:18:49.111Z,5.25
2022-07-29T19:21:16.195Z,5.32
2022-07-29T19:24:01.548Z,4.95
2022-07-29T19:26:36.298Z,5.50
2022-07-29T19:29:04.362Z,5.80
2022-07-29T19:31:31.650Z,5.15
2022-07-29T19:33:59.230Z,5.47
2022-07-29T19:36:27.331Z,5.15
2022-07-29T19:38:54.496Z,5.72
2022-07-29T19:41:21.610Z,6.72
2022-07-29T19:43:50.530Z,6.62
2022-07-29T19:46:21.591Z,6.12
2022-07-29T19:48:49.952Z,4.80
2022-07-29T19:51:17.464Z,4.85
2022-07-29T19:53:44.561Z,4.87
2022-07-29T19:56:12.051Z,5.07
2022-07-29T19:58:40.798Z,5.87
2022-07-29T20:01:10.340Z,5.22
2022-07-29T20:03:41.124Z,5.43
2022-07-29T20:06:08.602Z,4.60
2022-07-29T20:08:35.837Z,4.70
2022-07-29T20:11:03.458Z,4.30
2022-07-29T20:13:33.054Z,3.92
2022-07-29T20:16:01.221Z,4.18
2022-07-29T20:18:28.686Z,3.80
2022-07-29T20:20:57.478Z,4.10
2022-07-29T20:23:24.643Z,3.58
2022-07-29T20:25:52.041Z,3.90
2022-07-29T20:28:21.178Z,3.50
2022-07-29T20:30:48.537Z,3.47
2022-07-29T20:33:16.700Z,3.78
2022-07-29T20:35:43.908Z,4.00
2022-07-29T20:38:13.933Z,4.03
2022-07-29T20:40:45.539Z,3.90
2022-07-29T20:43:12.696Z,4.72
2022-07-29T20:45:39.956Z,5.15
2022-07-29T20:48:08.328Z,4.70
2022-07-29T20:50:35.972Z,4.37
2022-07-29T20:53:03.264Z,4.12
2022-07-29T20:55:32.057Z,3.92
2022-07-29T20:57:59.251Z,4.07
2022-07-29T21:00:26.468Z,4.03
2022-07-29T21:02:54.112Z,4.00
2022-07-29T21:05:21.269Z,4.10
2022-07-29T21:07:48.400Z,3.30
2022-07-29T21:10:18.207Z,4.15
2022-07-29T21:12:48.292Z,4.10
2022-07-29T21:15:16.332Z,4.20
2022-07-29T21:17:47.191Z,4.10
2022-07-29T21:20:15.592Z,4.00
2022-07-29T21:22:43.690Z,4.22
2022-07-29T21:25:11.490Z,4.40
2022-07-29T21:27:57.122Z,3.85
2022-07-29T21:30:24.530Z,4.10
2022-07-29T21:32:51.682Z,4.03
2022-07-29T21:36:02.136Z,3.80
2022-07-29T21:38:06.164Z,3.85
2022-07-29T21:40:33.220Z,3.83
2022-07-29T21:43:00.297Z,3.92
2022-07-29T21:45:27.751Z,3.75
2022-07-29T21:47:54.851Z,4.10
2022-07-29T21:50:21.948Z,3.95
2022-07-29T21:52:49.349Z,4.12
2022-07-29T21:55:16.421Z,3.62
2022-07-29T21:57:46.391Z,4.32
2022-07-29T22:00:16.751Z,3.80
2022-07-29T22:02:44.739Z,4.45
2022-07-29T22:05:12.355Z,3.72
2022-07-29T22:07:56.541Z,4.18
2022-07-29T22:10:26.046Z,4.43
2022-07-29T22:12:54.164Z,4.00
2022-07-29T22:15:21.611Z,4.37
2022-07-29T22:17:49.085Z,4.00
2022-07-29T22:20:16.266Z,4.07
2022-07-29T22:22:43.316Z,4.45
2022-07-29T22:25:11.187Z,4.07
2022-07-29T22:27:38.863Z,4.22
2022-07-29T22:30:07.657Z,4.47
2022-07-29T22:32:35.165Z,4.05
2022-07-29T22:35:02.250Z,3.75
2022-07-29T22:37:29.365Z,4.12
2022-07-29T22:39:56.834Z,4.80
2022-07-29T22:42:24.142Z,4.60
2022-07-29T22:44:51.489Z,4.78
2022-07-29T22:47:18.871Z,4.60
2022-07-29T22:50:06.655Z,4.28
2022-07-29T22:52:34.031Z,4.37
2022-07-29T22:55:01.123Z,3.85
2022-07-29T22:57:28.380Z,4.32
2022-07-29T22:59:55.749Z,3.80
2022-07-29T23:02:22.817Z,4.40
2022-07-29T23:04:49.887Z,4.65
2022-07-29T23:07:17.722Z,4.62
2022-07-29T23:09:44.855Z,5.20
2022-07-29T23:12:11.914Z,4.32
2022-07-29T23:14:39.409Z,3.87
2022-07-29T23:17:06.628Z,4.32
2022-07-29T23:19:33.801Z,4.35
2022-07-29T23:22:01.179Z,4.20
2022-07-29T23:24:28.282Z,4.55
2022-07-29T23:26:55.430Z,4.68
2022-07-29T23:29:22.830Z,4.72
2022-07-29T23:31:49.953Z,4.40
2022-07-29T23:34:17.135Z,4.07
2022-07-29T23:36:44.499Z,4.40
2022-07-29T23:39:12.317Z,4.25
2022-07-29T23:41:39.591Z,4.97
2022-07-29T23:44:07.294Z,4.57
2022-07-29T23:46:34.462Z,4.37
2022-07-29T23:49:01.652Z,5.15
2022-07-29T23:51:29.246Z,5.40
2022-07-29T23:53:56.568Z,4.62
2022-07-29T23:56:23.897Z,4.43
2022-07-29T23:58:51.328Z,4.50
